createdAt,value
2022-10-19T00:01:23.216Z,24.86
2022-10-19T00:03:54.771Z,24.87
2022-10-19T00:06:26.628Z,24.89
2022-10-19T00:08:56.629Z,24.89
2022-10-19T00:11:25.754Z,24.88
2022-10-19T00:13:54.610Z,24.76
2022-10-19T00:16:26.162Z,24.78
2022-10-19T00:18:57.786Z,24.82
2022-10-19T00:21:26.699Z,24.82
2022-10-19T00:23:55.107Z,24.81
2022-10-19T00:26:23.766Z,24.78
2022-10-19T00:28:54.639Z,24.75
2022-10-19T00:31:25.253Z,24.71
2022-10-19T00:33:54.470Z,24.70
2022-10-19T00:36:23.513Z,24.57
2022-10-19T00:38:52.588Z,24.59
2022-10-19T00:41:22.395Z,24.63
2022-10-19T00:44:02.362Z,24.64
2022-10-19T00:46:34.995Z,24.63
2022-10-19T00:49:10.015Z,24.64
2022-10-19T00:51:43.496Z,24.66
2022-10-19T00:54:13.323Z,24.69
2022-10-19T00:56:44.293Z,24.72
2022-10-19T00:59:16.167Z,24.75
2022-10-19T01:01:47.310Z,24.78
2022-10-19T01:04:16.233Z,24.81
2022-10-19T01:06:44.871Z,24.83
2022-10-19T01:09:13.366Z,24.87
2022-10-19T01:11:52.961Z,24.87
2022-10-19T01:14:37.274Z,24.90
2022-10-19T01:17:16.142Z,24.90
2022-10-19T01:20:05.319Z,24.90
2022-10-19T01:22:57.708Z,24.89
2022-10-19T01:25:40.271Z,24.90
2022-10-19T01:28:26.619Z,24.89
2022-10-19T01:31:03.177Z,24.89
2022-10-19T01:33:44.629Z,24.88
2022-10-19T01:36:22.939Z,24.85
2022-10-19T01:38:59.916Z,24.85
2022-10-19T01:41:37.054Z,24.84
2022-10-19T01:44:15.051Z,24.81
2022-10-19T01:46:48.592Z,24.78
2022-10-19T01:49:21.096Z,24.77
2022-10-19T01:51:55.923Z,24.75
2022-10-19T01:54:27.691Z,24.73
2022-10-19T01:57:00.004Z,24.72
2022-10-19T01:59:28.986Z,24.72
2022-10-19T02:01:59.296Z,24.72
2022-10-19T02:04:28.093Z,24.74
2022-10-19T02:06:57.112Z,24.76
2022-10-19T02:09:25.542Z,24.78
2022-10-19T02:11:58.064Z,24.81
2022-10-19T02:14:31.350Z,24.84
2022-10-19T02:17:04.270Z,24.88
2022-10-19T02:19:33.813Z,24.90
2022-10-19T02:22:02.675Z,24.91
2022-10-19T02:24:31.079Z,24.92
2022-10-19T02:27:00.692Z,24.92
2022-10-19T02:29:29.839Z,24.94
2022-10-19T02:31:58.192Z,24.83
2022-10-19T02:34:28.432Z,24.86
2022-10-19T02:36:57.208Z,24.88
2022-10-19T02:39:26.031Z,24.90
2022-10-19T02:41:59.682Z,24.87
2022-10-19T02:44:32.537Z,24.85
2022-10-19T02:47:07.731Z,24.84
2022-10-19T02:49:39.357Z,24.82
2022-10-19T02:52:09.982Z,24.80
2022-10-19T02:54:39.527Z,24.80
2022-10-19T02:57:17.446Z,24.76
2022-10-19T02:59:46.011Z,24.77
2022-10-19T03:02:14.903Z,24.77
2022-10-19T03:04:45.359Z,24.76
2022-10-19T03:07:16.130Z,24.75
2022-10-19T03:09:45.199Z,24.76
2022-10-19T03:12:14.174Z,24.75
2022-10-19T03:14:43.021Z,24.74
2022-10-19T03:17:12.022Z,24.76
2022-10-19T03:19:41.139Z,24.69
2022-10-19T03:22:10.940Z,24.75
2022-10-19T03:24:39.402Z,24.80
2022-10-19T03:27:07.801Z,24.85
2022-10-19T03:29:36.224Z,24.89
2022-10-19T03:32:04.729Z,24.92
2022-10-19T03:34:33.086Z,24.96
2022-10-19T03:37:01.544Z,24.99
2022-10-19T03:39:31.317Z,25.01
2022-10-19T03:41:59.787Z,25.02
2022-10-19T03:44:28.236Z,25.02
2022-10-19T03:46:56.758Z,25.04
2022-10-19T03:49:25.188Z,25.06
2022-10-19T03:51:53.626Z,25.04
2022-10-19T03:54:25.013Z,25.00
2022-10-19T03:56:57.175Z,25.01
2022-10-19T03:59:25.635Z,25.01
2022-10-19T04:01:54.116Z,24.98
2022-10-19T04:04:22.582Z,24.97
2022-10-19T04:06:53.999Z,24.95
2022-10-19T04:09:24.219Z,25.00
2022-10-19T04:11:52.944Z,25.02
2022-10-19T04:14:32.721Z,25.02
2022-10-19T04:17:02.242Z,25.01
2022-10-19T04:19:30.774Z,25.01
2022-10-19T04:21:59.594Z,25.03
2022-10-19T04:24:28.146Z,25.07
2022-10-19T04:26:57.630Z,25.08
2022-10-19T04:29:29.764Z,25.09
2022-10-19T04:31:59.824Z,25.12
2022-10-19T04:34:28.362Z,25.13
2022-10-19T04:36:59.588Z,25.09
2022-10-19T04:39:28.335Z,25.06
2022-10-19T04:41:56.704Z,25.06
2022-10-19T04:44:25.323Z,25.07
2022-10-19T04:46:55.064Z,25.03
2022-10-19T04:49:23.542Z,25.02
2022-10-19T04:51:52.128Z,25.00
2022-10-19T04:54:20.545Z,24.96
2022-10-19T04:56:48.922Z,24.95
2022-10-19T04:59:17.710Z,24.93
2022-10-19T05:01:47.298Z,24.88
2022-10-19T05:04:17.318Z,24.86
2022-10-19T05:06:45.733Z,24.85
2022-10-19T05:09:14.249Z,24.82
2022-10-19T05:11:42.645Z,24.81
2022-10-19T05:14:11.086Z,24.78
2022-10-19T05:16:39.498Z,24.75
2022-10-19T05:19:07.981Z,24.72
2022-10-19T05:21:37.842Z,24.70
2022-10-19T05:24:06.618Z,24.68
2022-10-19T05:26:35.065Z,24.67
2022-10-19T05:29:04.685Z,24.62
2022-10-19T05:31:35.270Z,24.63
2022-10-19T05:34:05.118Z,24.60
2022-10-19T05:39:07.584Z,24.61
2022-10-19T05:41:36.475Z,24.60
2022-10-19T05:44:06.096Z,24.64
2022-10-19T05:46:35.237Z,24.70
2022-10-19T05:49:03.630Z,24.69
2022-10-19T05:51:32.760Z,24.71
2022-10-19T05:54:01.189Z,24.72
2022-10-19T05:56:32.394Z,24.72
2022-10-19T05:59:03.025Z,24.78
2022-10-19T06:01:32.751Z,24.80
2022-10-19T06:04:02.181Z,24.77
2022-10-19T06:06:32.109Z,24.76
2022-10-19T06:09:01.435Z,24.74
2022-10-19T06:11:34.053Z,24.74
2022-10-19T06:14:04.246Z,24.74
2022-10-19T06:16:33.784Z,24.72
2022-10-19T06:19:02.558Z,24.71
2022-10-19T06:21:32.548Z,24.68
2022-10-19T06:24:02.977Z,24.72
2022-10-19T06:26:34.747Z,24.69
2022-10-19T06:29:04.260Z,24.67
2022-10-19T06:31:34.731Z,24.63
2022-10-19T06:34:03.431Z,24.63
2022-10-19T06:36:33.142Z,24.63
2022-10-19T06:39:02.878Z,24.62
2022-10-19T06:41:34.321Z,24.60
2022-10-19T06:44:19.471Z,24.58
2022-10-19T06:46:48.049Z,24.57
2022-10-19T06:49:16.413Z,24.58
2022-10-19T06:51:44.899Z,24.58
2022-10-19T06:54:13.288Z,24.58
2022-10-19T06:56:43.234Z,24.58
2022-10-19T06:59:14.780Z,24.58
2022-10-19T07:01:43.553Z,24.60
2022-10-19T07:04:11.935Z,24.59
2022-10-19T07:06:40.611Z,24.59
2022-10-19T07:09:09.064Z,24.58
2022-10-19T07:11:37.906Z,24.56
2022-10-19T07:14:08.700Z,24.56
2022-10-19T07:16:37.192Z,24.56
2022-10-19T07:19:05.586Z,24.53
2022-10-19T07:21:36.008Z,24.52
2022-10-19T07:24:04.680Z,24.51
2022-10-19T07:26:33.869Z,24.50
2022-10-19T07:29:02.993Z,24.43
2022-10-19T07:31:33.650Z,24.38
2022-10-19T07:34:03.923Z,24.45
2022-10-19T07:36:34.916Z,24.50
2022-10-19T07:39:05.513Z,24.52
2022-10-19T07:41:34.802Z,24.55
2022-10-19T07:44:03.489Z,24.61
2022-10-19T07:46:33.982Z,24.69
2022-10-19T07:49:03.224Z,24.77
2022-10-19T07:51:31.704Z,24.87
2022-10-19T07:54:00.986Z,24.87
2022-10-19T07:56:30.021Z,24.89
2022-10-19T07:58:59.860Z,24.84
2022-10-19T08:01:29.998Z,24.82
2022-10-19T08:06:50.475Z,24.81
2022-10-19T08:09:47.187Z,24.83
2022-10-19T08:12:12.345Z,24.79
2022-10-19T08:14:43.177Z,24.78
2022-10-19T08:17:16.809Z,24.81
2022-10-19T08:19:47.254Z,24.81
2022-10-19T08:22:15.734Z,24.77
2022-10-19T08:24:44.173Z,24.74
2022-10-19T08:27:12.653Z,24.71
2022-10-19T08:29:41.141Z,24.70
2022-10-19T08:32:12.055Z,24.67
2022-10-19T08:34:40.663Z,24.66
2022-10-19T08:37:20.223Z,24.65
2022-10-19T08:39:54.644Z,24.64
2022-10-19T08:42:30.067Z,24.67
2022-10-19T08:45:28.505Z,24.68
2022-10-19T08:48:21.731Z,24.69
2022-10-19T08:50:50.689Z,24.74
2022-10-19T08:53:28.561Z,24.75
2022-10-19T08:56:15.039Z,24.76
2022-10-19T08:59:01.322Z,24.76
2022-10-19T09:01:38.552Z,24.78
2022-10-19T09:04:11.566Z,24.77
2022-10-19T09:06:50.947Z,24.78
2022-10-19T09:09:22.309Z,24.80
2022-10-19T09:11:52.449Z,24.83
2022-10-19T09:14:27.277Z,24.81
2022-10-19T09:16:58.854Z,24.79
2022-10-19T09:19:31.817Z,24.79
2022-10-19T09:22:05.751Z,24.77
2022-10-19T09:24:43.966Z,24.75
2022-10-19T09:27:21.365Z,24.73
2022-10-19T09:29:52.438Z,24.74
2022-10-19T09:32:24.074Z,24.72
2022-10-19T09:34:55.579Z,24.71
2022-10-19T09:37:26.761Z,24.71
2022-10-19T09:39:57.585Z,24.68
2022-10-19T09:42:29.544Z,24.67
2022-10-19T09:44:59.684Z,24.67
2022-10-19T09:47:35.033Z,24.65
2022-10-19T09:50:17.436Z,24.66
2022-10-19T09:52:47.330Z,24.69
2022-10-19T09:55:28.074Z,24.70
2022-10-19T09:58:03.664Z,24.68
2022-10-19T10:00:42.403Z,24.68
2022-10-19T10:03:24.792Z,24.69
2022-10-19T10:05:54.288Z,24.70
2022-10-19T10:08:25.920Z,24.74
2022-10-19T10:11:07.064Z,24.77
2022-10-19T10:13:39.963Z,24.79
2022-10-19T10:16:10.803Z,24.81
2022-10-19T10:18:52.367Z,24.83
2022-10-19T10:21:25.706Z,24.85
2022-10-19T10:24:05.863Z,24.85
2022-10-19T10:26:40.508Z,24.86
2022-10-19T10:29:20.346Z,24.85
2022-10-19T10:31:52.629Z,24.85
2022-10-19T10:34:45.677Z,24.87
2022-10-19T10:37:22.111Z,24.87
2022-10-19T10:39:55.111Z,24.88
2022-10-19T10:43:06.427Z,24.85
2022-10-19T10:46:09.961Z,24.82
2022-10-19T10:48:42.329Z,24.83
2022-10-19T10:51:21.792Z,24.84
2022-10-19T10:53:50.561Z,24.87
2022-10-19T10:56:25.625Z,24.87
2022-10-19T10:59:00.364Z,24.89
2022-10-19T11:01:38.195Z,24.91
2022-10-19T11:04:11.466Z,24.94
2022-10-19T11:06:45.751Z,24.97
2022-10-19T11:09:25.110Z,25.00
2022-10-19T11:11:56.298Z,25.02
2022-10-19T11:14:34.272Z,25.03
2022-10-19T11:17:08.535Z,25.03
2022-10-19T11:19:42.238Z,25.04
2022-10-19T11:22:23.583Z,25.05
2022-10-19T11:25:06.838Z,25.06
2022-10-19T11:27:48.154Z,25.07
2022-10-19T11:30:20.001Z,25.09
2022-10-19T11:33:02.962Z,25.09
2022-10-19T11:35:41.252Z,25.10
2022-10-19T11:38:32.651Z,25.09
2022-10-19T11:41:17.831Z,25.08
2022-10-19T11:44:04.176Z,25.05
2022-10-19T11:46:40.301Z,25.02
2022-10-19T11:49:26.383Z,25.00
2022-10-19T11:52:00.358Z,24.96
2022-10-19T11:54:42.654Z,24.95
2022-10-19T11:57:14.700Z,24.91
2022-10-19T12:00:14.405Z,24.89
2022-10-19T12:03:10.265Z,24.88
2022-10-19T12:05:54.155Z,24.90
2022-10-19T12:08:33.989Z,24.92
2022-10-19T12:11:12.440Z,24.93
2022-10-19T12:13:43.797Z,24.94
2022-10-19T12:16:15.430Z,24.99
2022-10-19T12:18:48.952Z,25.01
2022-10-19T12:21:27.727Z,25.00
2022-10-19T12:23:57.519Z,25.01
2022-10-19T12:26:29.315Z,25.04
2022-10-19T12:29:01.775Z,25.05
2022-10-19T12:31:31.855Z,25.07
2022-10-19T12:34:06.780Z,25.09
2022-10-19T12:36:46.245Z,25.11
2022-10-19T12:39:22.644Z,25.13
2022-10-19T12:41:58.449Z,25.12
2022-10-19T12:44:58.739Z,25.09
2022-10-19T12:47:27.981Z,25.09
2022-10-19T12:49:56.892Z,25.12
2022-10-19T12:52:42.210Z,25.09
2022-10-19T12:55:27.042Z,25.10
2022-10-19T12:58:02.347Z,25.09
2022-10-19T13:00:33.722Z,25.09
2022-10-19T13:03:08.806Z,25.07
2022-10-19T13:05:37.986Z,25.05
2022-10-19T13:08:10.801Z,24.95
2022-10-19T13:10:42.417Z,24.98
2022-10-19T13:13:46.438Z,24.99
2022-10-19T13:16:54.385Z,24.98
2022-10-19T13:19:23.852Z,24.96
2022-10-19T13:22:14.578Z,24.96
2022-10-19T13:24:44.481Z,24.90
2022-10-19T13:27:43.294Z,24.88
2022-10-19T13:30:45.059Z,24.84
2022-10-19T13:33:49.116Z,24.83
2022-10-19T13:36:18.796Z,24.84
2022-10-19T13:38:49.583Z,24.88
2022-10-19T13:41:22.806Z,24.90
2022-10-19T13:44:04.508Z,24.89
2022-10-19T13:46:59.044Z,24.89
2022-10-19T13:50:16.211Z,24.90
2022-10-19T13:53:06.991Z,24.92
2022-10-19T13:55:59.655Z,24.94
2022-10-19T13:59:15.710Z,24.96
2022-10-19T14:02:14.461Z,24.97
2022-10-19T14:04:52.403Z,24.98
2022-10-19T14:07:29.265Z,25.01
2022-10-19T14:10:09.260Z,25.01
2022-10-19T14:12:43.495Z,25.01
2022-10-19T14:15:30.917Z,25.02
2022-10-19T14:18:05.788Z,25.04
2022-10-19T14:20:37.092Z,25.04
2022-10-19T14:23:20.303Z,25.03
2022-10-19T14:25:53.888Z,25.03
2022-10-19T14:28:24.881Z,25.04
2022-10-19T14:30:58.416Z,25.05
2022-10-19T14:33:29.712Z,25.05
2022-10-19T14:35:58.484Z,25.03
2022-10-19T14:38:33.147Z,24.97
2022-10-19T14:41:01.786Z,24.93
2022-10-19T14:43:32.396Z,24.92
2022-10-19T14:46:16.013Z,24.89
2022-10-19T14:48:48.637Z,24.91
2022-10-19T14:51:26.841Z,24.90
2022-10-19T14:53:58.645Z,24.90
2022-10-19T14:56:34.885Z,24.91
2022-10-19T14:59:07.404Z,24.93
2022-10-19T15:01:37.319Z,24.96
2022-10-19T15:04:07.277Z,25.00
2022-10-19T15:06:42.593Z,25.01
2022-10-19T15:09:37.056Z,25.00
2022-10-19T15:12:18.109Z,25.00
2022-10-19T15:14:47.491Z,25.00
2022-10-19T15:17:30.973Z,24.99
2022-10-19T15:20:01.805Z,25.01
2022-10-19T15:22:40.952Z,25.00
2022-10-19T15:25:37.234Z,24.99
2022-10-19T15:28:34.940Z,24.96
2022-10-19T15:31:08.036Z,24.97
2022-10-19T15:33:45.787Z,24.98
2022-10-19T15:36:18.589Z,24.97
2022-10-19T15:38:49.123Z,24.98
2022-10-19T15:41:21.013Z,24.95
2022-10-19T15:43:54.117Z,24.94
2022-10-19T15:46:32.463Z,24.94
2022-10-19T15:49:04.587Z,24.92
2022-10-19T15:51:42.128Z,24.92
2022-10-19T15:54:10.838Z,24.91
2022-10-19T15:56:41.132Z,24.93
2022-10-19T15:59:14.870Z,24.93
2022-10-19T16:01:44.085Z,24.96
2022-10-19T16:04:12.991Z,24.98
2022-10-19T16:06:44.989Z,24.97
2022-10-19T16:09:20.184Z,24.96
2022-10-19T16:11:49.232Z,24.98
2022-10-19T16:16:51.490Z,24.97
2022-10-19T16:19:19.992Z,24.99
2022-10-19T16:21:50.509Z,24.96
2022-10-19T16:24:19.066Z,24.93
2022-10-19T16:26:47.703Z,24.93
2022-10-19T16:29:16.059Z,24.92
2022-10-19T16:31:44.606Z,24.92
2022-10-19T16:34:13.187Z,24.90
2022-10-19T16:36:41.718Z,24.88
2022-10-19T16:39:11.772Z,24.88
2022-10-19T16:41:40.640Z,24.86
2022-10-19T16:44:12.801Z,24.83
2022-10-19T16:46:41.602Z,24.83
2022-10-19T16:49:10.074Z,24.82
2022-10-19T16:51:39.715Z,24.79
2022-10-19T16:54:10.942Z,24.82
2022-10-19T16:56:44.829Z,24.85
2022-10-19T16:59:15.890Z,24.89
2022-10-19T17:01:45.676Z,24.90
2022-10-19T17:04:17.377Z,24.87
2022-10-19T17:06:46.264Z,24.86
2022-10-19T17:09:40.395Z,24.87
2022-10-19T17:12:05.914Z,24.87
2022-10-19T17:14:35.176Z,24.89
2022-10-19T17:17:03.478Z,24.84
2022-10-19T17:19:32.045Z,24.91
2022-10-19T17:22:02.082Z,24.98
2022-10-19T17:24:31.180Z,25.03
2022-10-19T17:27:03.272Z,25.04
2022-10-19T17:29:33.269Z,25.07
2022-10-19T17:32:01.994Z,25.07
2022-10-19T17:34:30.819Z,25.08
2022-10-19T17:36:59.407Z,25.08
2022-10-19T17:39:29.954Z,25.09
2022-10-19T17:42:02.202Z,25.11
2022-10-19T17:44:32.776Z,25.12
2022-10-19T17:47:02.226Z,25.10
2022-10-19T17:49:30.957Z,25.10
2022-10-19T17:51:59.871Z,25.09
2022-10-19T17:54:28.655Z,25.08
2022-10-19T17:56:57.255Z,25.08
2022-10-19T17:59:30.526Z,25.07
2022-10-19T18:02:07.628Z,25.07
2022-10-19T18:07:09.765Z,25.07
2022-10-19T18:09:38.246Z,25.10
2022-10-19T18:12:08.752Z,25.09
2022-10-19T18:14:37.332Z,25.08
2022-10-19T18:17:07.722Z,25.09
2022-10-19T18:19:36.222Z,25.09
2022-10-19T18:22:04.994Z,25.05
2022-10-19T18:24:34.769Z,25.03
2022-10-19T18:27:03.386Z,25.02
2022-10-19T18:29:31.924Z,25.08
2022-10-19T18:32:01.744Z,25.09
2022-10-19T18:34:31.788Z,25.10
2022-10-19T18:37:00.584Z,25.10
2022-10-19T18:39:29.078Z,25.11
2022-10-19T18:41:57.706Z,25.11
2022-10-19T18:44:27.889Z,25.10
2022-10-19T18:46:57.957Z,25.07
2022-10-19T18:49:26.147Z,24.98
2022-10-19T18:51:56.307Z,25.02
2022-10-19T18:54:26.482Z,25.03
2022-10-19T18:56:55.528Z,25.01
2022-10-19T18:59:24.495Z,25.01
2022-10-19T19:01:53.047Z,24.99
2022-10-19T19:04:21.530Z,24.99
2022-10-19T19:06:50.188Z,24.98
2022-10-19T19:09:21.281Z,24.95
2022-10-19T19:11:50.239Z,24.95
2022-10-19T19:14:21.674Z,24.93
2022-10-19T19:16:50.302Z,24.91
2022-10-19T19:19:19.722Z,24.81
2022-10-19T19:21:49.982Z,24.82
2022-10-19T19:24:21.934Z,24.81
2022-10-19T19:26:52.956Z,24.80
2022-10-19T19:29:22.432Z,24.79
2022-10-19T19:31:51.224Z,24.77
2022-10-19T19:34:19.754Z,24.75
2022-10-19T19:36:48.908Z,24.71
2022-10-19T19:39:21.254Z,24.74
2022-10-19T19:41:50.456Z,24.72
2022-10-19T19:44:20.129Z,24.74
2022-10-19T19:46:48.667Z,24.73
2022-10-19T19:49:17.197Z,24.74
2022-10-19T19:51:45.588Z,24.73
2022-10-19T19:54:14.063Z,24.75
2022-10-19T19:56:43.922Z,24.74
2022-10-19T19:59:13.912Z,24.75
2022-10-19T20:01:43.057Z,24.73
2022-10-19T20:04:11.519Z,24.70
2022-10-19T20:06:41.058Z,24.70
2022-10-19T20:09:10.857Z,24.70
2022-10-19T20:11:42.317Z,24.68
2022-10-19T20:14:13.911Z,24.65
2022-10-19T20:16:42.512Z,24.65
2022-10-19T20:19:13.176Z,24.66
2022-10-19T20:21:42.292Z,24.65
2022-10-19T20:24:11.402Z,24.63
2022-10-19T20:26:40.048Z,24.62
2022-10-19T20:29:08.692Z,24.59
2022-10-19T20:31:40.648Z,24.59
2022-10-19T20:34:11.190Z,24.58
2022-10-19T20:36:39.990Z,24.56
2022-10-19T20:39:08.505Z,24.55
2022-10-19T20:41:37.258Z,24.52
2022-10-19T20:44:05.997Z,24.49
2022-10-19T20:46:34.427Z,24.49
2022-10-19T20:49:04.884Z,24.47
2022-10-19T20:51:36.684Z,24.46
2022-10-19T20:54:07.194Z,24.45
2022-10-19T20:56:37.647Z,24.44
2022-10-19T20:59:07.934Z,24.43
2022-10-19T21:01:37.854Z,24.40
2022-10-19T21:04:09.311Z,24.39
2022-10-19T21:06:41.301Z,24.37
2022-10-19T21:09:10.807Z,24.38
2022-10-19T21:11:41.458Z,24.38
2022-10-19T21:14:13.163Z,24.38
2022-10-19T21:16:42.370Z,24.36
2022-10-19T21:19:13.825Z,24.26
2022-10-19T21:21:44.472Z,24.27
2022-10-19T21:24:14.616Z,24.30
2022-10-19T21:26:43.934Z,24.27
2022-10-19T21:29:14.271Z,24.25
2022-10-19T21:31:47.878Z,24.27
2022-10-19T21:34:21.163Z,24.27
2022-10-19T21:36:49.977Z,24.26
2022-10-19T21:39:18.648Z,24.25
2022-10-19T21:41:47.755Z,24.22
2022-10-19T21:44:18.381Z,24.21
2022-10-19T21:46:49.218Z,24.18
2022-10-19T21:49:19.369Z,24.17
2022-10-19T21:51:49.940Z,24.17
2022-10-19T21:54:21.480Z,24.17
2022-10-19T21:56:50.360Z,24.17
2022-10-19T21:59:19.632Z,24.16
2022-10-19T22:01:48.346Z,24.15
2022-10-19T22:04:19.433Z,24.14
2022-10-19T22:06:48.294Z,24.16
2022-10-19T22:09:19.283Z,24.16
2022-10-19T22:11:48.496Z,24.14
2022-10-19T22:14:17.327Z,24.03
2022-10-19T22:16:45.972Z,24.05
2022-10-19T22:19:14.579Z,24.07
2022-10-19T22:21:44.566Z,24.06
2022-10-19T22:24:16.129Z,24.06
2022-10-19T22:26:46.438Z,24.05
2022-10-19T22:29:14.884Z,24.03
2022-10-19T22:31:43.673Z,24.02
2022-10-19T22:34:15.052Z,24.04
2022-10-19T22:36:45.323Z,24.03
2022-10-19T22:39:14.994Z,24.01
2022-10-19T22:41:43.408Z,24.01
2022-10-19T22:44:11.953Z,24.00
2022-10-19T22:46:40.316Z,23.98
2022-10-19T22:51:42.567Z,24.00
2022-10-19T22:54:12.404Z,23.98
2022-10-19T22:56:41.292Z,23.98
2022-10-19T22:59:10.435Z,24.01
2022-10-19T23:01:39.462Z,24.00
2022-10-19T23:04:07.739Z,23.88
2022-10-19T23:06:36.236Z,23.92
2022-10-19T23:09:05.254Z,23.93
2022-10-19T23:11:35.164Z,23.93
2022-10-19T23:14:03.532Z,23.93
2022-10-19T23:16:32.147Z,23.91
2022-10-19T23:19:00.589Z,23.92
2022-10-19T23:21:29.055Z,23.93
2022-10-19T23:23:57.448Z,23.93
2022-10-19T23:26:26.253Z,23.93
2022-10-19T23:28:56.114Z,23.93
2022-10-19T23:31:26.898Z,23.93
2022-10-19T23:33:55.978Z,23.94
2022-10-19T23:36:27.076Z,23.94
2022-10-19T23:38:56.758Z,23.94
2022-10-19T23:41:25.491Z,23.96
2022-10-19T23:43:55.532Z,23.95
2022-10-19T23:46:24.072Z,23.95
2022-10-19T23:48:52.510Z,23.94
2022-10-19T23:51:22.544Z,23.92
2022-10-19T23:53:53.001Z,23.92
2022-10-19T23:56:23.483Z,23.91
2022-10-19T23:58:52.061Z,23.90
